Time;durP1;ratioP1;P1;durP2;ratioP2;P2;SDS_P1;SDS_P2;PMS_P1;PMS_P2;Temp;Humidity;BMP_temperature;BMP_pressure;BME280_temperature;BME280_humidity;BME280_pressure;Samples;Min_cycle;Max_cycle;Signal;HPM_P1;HPM_P2
2023/05/01 00:00:59;;;;;;;;;22.75;22.00;;;;;;;;5032018;28;11465;-84
2023/05/01 00:03:28;;;;;;;;;28.00;23.75;;;;;;;;5031865;28;11517;-85
2023/05/01 00:06:01;;;;;;;;;25.25;24.75;;;;;;;;5032108;28;11532;-85
2023/05/01 00:08:30;;;;;;;;;24.00;23.00;;;;;;;;5031802;28;11517;-84
2023/05/01 00:11:04;;;;;;;;;26.00;23.25;;;;;;;;5041694;28;11531;-84
2023/05/01 00:13:32;;;;;;;;;24.25;22.50;;;;;;;;5033151;28;11217;-84
2023/05/01 00:16:00;;;;;;;;;24.00;22.50;;;;;;;;5033167;28;11275;-84
2023/05/01 00:18:30;;;;;;;;;26.00;24.75;;;;;;;;5034659;28;11291;-84
2023/05/01 00:20:57;;;;;;;;;25.25;24.50;;;;;;;;5034971;28;11581;-84
2023/05/01 00:23:25;;;;;;;;;27.25;23.25;;;;;;;;5031359;28;11562;-84
2023/05/01 00:25:53;;;;;;;;;27.50;27.50;;;;;;;;5031055;28;11504;-84
2023/05/01 00:28:20;;;;;;;;;22.00;19.25;;;;;;;;5042417;28;11639;-84
2023/05/01 00:30:48;;;;;;;;;22.00;22.00;;;;;;;;5031087;28;11219;-84
2023/05/01 00:33:15;;;;;;;;;25.50;22.50;;;;;;;;5031724;28;11536;-85
2023/05/01 00:35:46;;;;;;;;;22.25;22.25;;;;;;;;5030989;28;11459;-85
2023/05/01 00:38:13;;;;;;;;;25.25;23.75;;;;;;;;5030527;28;11236;-84
2023/05/01 00:40:44;;;;;;;;;21.50;21.25;;;;;;;;5032710;28;11594;-84
2023/05/01 00:43:12;;;;;;;;;28.50;23.75;;;;;;;;5021241;28;11300;-84
2023/05/01 00:45:41;;;;;;;;;21.25;21.25;;;;;;;;5032435;28;11519;-85
2023/05/01 00:48:10;;;;;;;;;24.75;20.50;;;;;;;;5042976;28;11302;-85
2023/05/01 00:50:37;;;;;;;;;19.25;15.50;;;;;;;;5032166;28;11594;-85
2023/05/01 00:53:06;;;;;;;;;22.50;22.50;;;;;;;;5032992;28;11222;-85
2023/05/01 00:55:34;;;;;;;;;23.00;20.50;;;;;;;;5031814;28;11274;-85
2023/05/01 00:58:01;;;;;;;;;25.00;20.50;;;;;;;;5034412;28;11230;-85
2023/05/01 01:00:29;;;;;;;;;19.50;19.25;;;;;;;;5031079;28;11201;-84
2023/05/01 01:02:59;;;;;;;;;21.50;21.50;;;;;;;;5032675;28;11055;-85
2023/05/01 01:05:28;;;;;;;;;22.00;22.00;;;;;;;;5031621;28;11144;-84
2023/05/01 01:08:09;;;;;;;;;19.00;18.50;;;;;;;;5031485;28;11530;-85
2023/05/01 01:10:43;;;;;;;;;21.25;21.25;;;;;;;;5020687;28;11183;-84
2023/05/01 01:13:14;;;;;;;;;19.50;16.75;;;;;;;;5031193;28;11298;-84
2023/05/01 01:15:46;;;;;;;;;20.75;19.50;;;;;;;;5030857;28;11156;-84
2023/05/01 01:18:18;;;;;;;;;23.00;23.00;;;;;;;;5030492;28;11321;-85
2023/05/01 01:20:49;;;;;;;;;27.00;25.00;;;;;;;;5030674;28;11528;-86
2023/05/01 01:23:53;;;;;;;;;25.25;20.00;;;;;;;;5030523;28;11641;-85
2023/05/01 01:26:46;;;;;;;;;24.00;23.75;;;;;;;;5014799;28;11539;-85
2023/05/01 01:29:42;;;;;;;;;23.50;23.50;;;;;;;;5024099;28;11543;-84
2023/05/01 01:32:25;;;;;;;;;17.25;17.25;;;;;;;;5012616;28;11462;-84
2023/05/01 01:34:58;;;;;;;;;20.25;20.25;;;;;;;;5049753;28;11287;-84
2023/05/01 01:37:31;;;;;;;;;24.25;20.25;;;;;;;;5049231;28;11484;-84
2023/05/01 01:40:02;;;;;;;;;16.75;15.75;;;;;;;;5041200;28;11497;-84
2023/05/01 01:42:33;;;;;;;;;17.75;17.75;;;;;;;;5049935;28;11491;-85
2023/05/01 01:45:05;;;;;;;;;17.50;17.50;;;;;;;;5049855;28;11623;-85
2023/05/01 01:47:34;;;;;;;;;22.75;19.25;;;;;;;;5049281;28;11523;-85
2023/05/01 01:50:05;;;;;;;;;20.25;20.25;;;;;;;;5049780;28;11447;-85
2023/05/01 01:52:34;;;;;;;;;18.25;18.25;;;;;;;;5048599;28;11581;-85
2023/05/01 01:55:07;;;;;;;;;18.00;18.00;;;;;;;;5032396;28;11482;-85
2023/05/01 01:57:35;;;;;;;;;19.25;17.75;;;;;;;;5048654;28;11544;-84
2023/05/01 02:00:07;;;;;;;;;18.75;18.75;;;;;;;;5048983;28;11547;-85
2023/05/01 02:02:36;;;;;;;;;17.25;17.25;;;;;;;;5049424;28;11498;-85
2023/05/01 02:05:06;;;;;;;;;19.25;17.25;;;;;;;;5049935;28;11549;-84
2023/05/01 02:07:35;;;;;;;;;18.50;16.25;;;;;;;;5051397;28;11426;-83
2023/05/01 02:10:05;;;;;;;;;25.50;20.75;;;;;;;;5051163;28;11493;-84
2023/05/01 02:12:33;;;;;;;;;22.00;22.00;;;;;;;;5049934;28;11550;-85
2023/05/01 02:15:01;;;;;;;;;15.75;15.75;;;;;;;;5050331;28;11561;-85
2023/05/01 02:17:32;;;;;;;;;22.50;21.50;;;;;;;;5014106;28;11564;-85
2023/05/01 02:19:59;;;;;;;;;21.75;18.00;;;;;;;;5047245;28;11473;-85
2023/05/01 02:22:31;;;;;;;;;15.75;15.75;;;;;;;;5048403;28;11570;-85
2023/05/01 02:25:02;;;;;;;;;22.50;18.25;;;;;;;;5048882;28;11439;-83
2023/05/01 02:27:33;;;;;;;;;19.25;19.00;;;;;;;;5049295;28;11559;-84
2023/05/01 02:30:01;;;;;;;;;22.75;17.00;;;;;;;;5049246;28;11410;-83
2023/05/01 02:32:28;;;;;;;;;16.50;16.50;;;;;;;;5048769;28;11387;-83
2023/05/01 02:34:56;;;;;;;;;18.50;18.50;;;;;;;;5039477;28;11553;-83
2023/05/01 02:37:23;;;;;;;;;23.00;19.25;;;;;;;;5049148;28;11413;-83
2023/05/01 02:39:52;;;;;;;;;19.75;18.00;;;;;;;;5050108;28;11430;-83
2023/05/01 02:42:22;;;;;;;;;25.00;25.00;;;;;;;;5049340;28;11467;-83
2023/05/01 02:44:54;;;;;;;;;18.75;18.75;;;;;;;;5050167;28;11462;-83
2023/05/01 02:47:23;;;;;;;;;18.25;17.25;;;;;;;;5050171;28;11540;-83
2023/05/01 02:49:51;;;;;;;;;21.25;19.25;;;;;;;;5050881;28;11513;-84
2023/05/01 02:52:20;;;;;;;;;21.00;21.00;;;;;;;;5050222;28;11565;-82
2023/05/01 02:54:48;;;;;;;;;22.75;20.25;;;;;;;;5042055;28;11482;-83
2023/05/01 02:57:19;;;;;;;;;15.50;15.50;;;;;;;;5051768;28;11433;-84
2023/05/01 02:59:46;;;;;;;;;19.75;17.75;;;;;;;;5051505;28;11438;-83
2023/05/01 03:02:14;;;;;;;;;22.25;16.25;;;;;;;;5032538;28;12325;-83
2023/05/01 03:04:42;;;;;;;;;17.75;15.00;;;;;;;;5029765;28;11521;-84
2023/05/01 03:07:11;;;;;;;;;19.50;19.50;;;;;;;;5027229;28;11448;-84
2023/05/01 03:09:39;;;;;;;;;14.50;14.50;;;;;;;;5030185;28;11571;-83
2023/05/01 03:12:06;;;;;;;;;14.25;13.00;;;;;;;;5030913;28;11472;-84
2023/05/01 03:14:35;;;;;;;;;11.25;11.25;;;;;;;;5032668;28;11596;-84
2023/05/01 03:17:02;;;;;;;;;17.50;16.00;;;;;;;;5032727;28;11506;-83
2023/05/01 03:19:30;;;;;;;;;19.50;17.00;;;;;;;;5029873;28;11571;-84
2023/05/01 03:21:57;;;;;;;;;17.75;16.25;;;;;;;;5033058;28;11430;-84
2023/05/01 03:24:24;;;;;;;;;15.00;11.75;;;;;;;;5032591;28;11439;-85
2023/05/01 03:26:54;;;;;;;;;21.75;16.25;;;;;;;;5032554;28;11943;-85
2023/05/01 03:29:22;;;;;;;;;13.25;12.75;;;;;;;;5032876;28;11454;-85
2023/05/01 03:31:50;;;;;;;;;12.50;12.50;;;;;;;;5032094;28;11382;-85
2023/05/01 03:34:17;;;;;;;;;13.00;13.00;;;;;;;;5029826;28;12282;-85
2023/05/01 03:36:45;;;;;;;;;19.00;19.00;;;;;;;;5033021;28;11678;-84
2023/05/01 03:39:12;;;;;;;;;25.50;24.25;;;;;;;;5033188;28;11451;-84
2023/05/01 03:41:39;;;;;;;;;20.75;19.50;;;;;;;;5032546;28;11552;-84
2023/05/01 03:44:06;;;;;;;;;30.25;27.50;;;;;;;;5032221;28;11499;-84
2023/05/01 03:46:34;;;;;;;;;33.75;30.00;;;;;;;;5032241;28;11542;-85
2023/05/01 03:49:02;;;;;;;;;28.75;25.25;;;;;;;;5034392;28;11510;-85
2023/05/01 03:51:30;;;;;;;;;30.50;26.50;;;;;;;;5032351;28;11621;-84
2023/05/01 03:53:57;;;;;;;;;26.50;26.50;;;;;;;;5032179;28;11614;-85
2023/05/01 03:56:25;;;;;;;;;31.50;28.00;;;;;;;;5032161;28;11496;-84
2023/05/01 03:58:52;;;;;;;;;27.50;25.00;;;;;;;;5028330;28;11703;-85
2023/05/01 04:01:20;;;;;;;;;31.50;31.50;;;;;;;;5032978;28;11511;-85
2023/05/01 04:03:47;;;;;;;;;11.75;11.75;;;;;;;;5033350;28;11575;-85
2023/05/01 04:06:17;;;;;;;;;29.75;25.25;;;;;;;;5034777;28;11443;-84
2023/05/01 04:08:44;;;;;;;;;25.75;25.75;;;;;;;;5033307;28;11530;-82
2023/05/01 04:11:11;;;;;;;;;24.00;24.00;;;;;;;;5031758;28;11692;-84
2023/05/01 04:13:39;;;;;;;;;20.75;19.75;;;;;;;;5031242;28;11445;-84
2023/05/01 04:16:07;;;;;;;;;31.50;28.00;;;;;;;;5031482;28;11554;-84
2023/05/01 04:18:34;;;;;;;;;26.75;26.50;;;;;;;;5031648;28;11478;-83
2023/05/01 04:21:01;;;;;;;;;25.50;25.00;;;;;;;;5031987;28;11500;-84
2023/05/01 04:23:31;;;;;;;;;27.75;25.50;;;;;;;;5031185;28;11503;-84
2023/05/01 04:26:01;;;;;;;;;26.75;25.75;;;;;;;;5031618;28;11438;-84
2023/05/01 04:28:31;;;;;;;;;24.25;22.75;;;;;;;;5031486;28;11605;-84
2023/05/01 04:30:59;;;;;;;;;28.50;26.75;;;;;;;;5026396;28;11378;-84
2023/05/01 04:33:29;;;;;;;;;27.50;27.25;;;;;;;;5031313;28;11522;-84
2023/05/01 04:35:56;;;;;;;;;34.75;32.00;;;;;;;;5029916;28;11458;-83
2023/05/01 04:38:26;;;;;;;;;35.25;31.00;;;;;;;;5031778;28;11511;-82
2023/05/01 04:40:56;;;;;;;;;24.25;23.00;;;;;;;;5014485;28;11903;-83
2023/05/01 04:43:25;;;;;;;;;31.50;30.25;;;;;;;;5027789;28;11471;-82
2023/05/01 04:45:55;;;;;;;;;37.25;32.75;;;;;;;;5032842;28;11685;-82
2023/05/01 04:48:22;;;;;;;;;32.00;29.50;;;;;;;;5033314;28;11524;-83
2023/05/01 04:50:49;;;;;;;;;28.00;27.25;;;;;;;;5032579;28;11561;-83
2023/05/01 04:53:17;;;;;;;;;25.75;22.75;;;;;;;;5030819;28;11468;-83
2023/05/01 04:55:44;;;;;;;;;29.00;29.00;;;;;;;;5030079;28;11517;-84
2023/05/01 04:58:13;;;;;;;;;28.00;26.00;;;;;;;;5030292;28;12304;-83
2023/05/01 05:00:40;;;;;;;;;26.50;26.00;;;;;;;;5029931;28;12253;-83
2023/05/01 05:03:07;;;;;;;;;39.50;33.75;;;;;;;;5030892;28;11550;-83
2023/05/01 05:05:35;;;;;;;;;25.00;25.00;;;;;;;;5018465;28;11465;-82
2023/05/01 05:08:03;;;;;;;;;29.50;29.00;;;;;;;;5031436;28;11451;-84
2023/05/01 05:10:30;;;;;;;;;32.25;26.50;;;;;;;;5030536;28;11446;-84
2023/05/01 05:13:00;;;;;;;;;24.75;21.75;;;;;;;;5030634;28;11454;-83
2023/05/01 05:15:29;;;;;;;;;29.25;27.25;;;;;;;;5029356;28;11493;-84
2023/05/01 05:17:56;;;;;;;;;35.50;27.50;;;;;;;;5029900;28;11534;-83
2023/05/01 05:20:24;;;;;;;;;30.75;30.50;;;;;;;;5029886;28;11582;-83
2023/05/01 05:22:51;;;;;;;;;3.25;0.00;;;;;;;;5030143;28;11466;-84
2023/05/01 05:25:19;;;;;;;;;33.25;32.75;;;;;;;;5017081;28;11172;-83
2023/05/01 05:27:46;;;;;;;;;28.00;26.50;;;;;;;;5029683;28;11451;-84
2023/05/01 05:30:14;;;;;;;;;34.00;31.75;;;;;;;;5028504;28;12299;-83
2023/05/01 05:32:43;;;;;;;;;31.75;28.00;;;;;;;;5029941;28;11326;-83
2023/05/01 05:35:10;;;;;;;;;36.50;33.25;;;;;;;;5030194;28;11439;-83
2023/05/01 05:37:40;;;;;;;;;26.75;26.75;;;;;;;;5030160;28;11455;-82
2023/05/01 05:40:09;;;;;;;;;30.50;30.50;;;;;;;;5028605;28;11111;-77
2023/05/01 05:42:36;;;;;;;;;30.00;29.75;;;;;;;;5031732;28;11565;-79
2023/05/01 05:45:04;;;;;;;;;32.75;32.25;;;;;;;;5032618;28;11350;-78
2023/05/01 05:47:31;;;;;;;;;31.75;30.50;;;;;;;;5028481;28;11240;-78
2023/05/01 05:50:00;;;;;;;;;38.00;32.75;;;;;;;;5029686;28;11248;-77
2023/05/01 05:52:27;;;;;;;;;29.25;27.00;;;;;;;;5028974;28;12053;-78
2023/05/01 05:54:54;;;;;;;;;31.50;31.50;;;;;;;;5029405;28;11045;-77
2023/05/01 05:57:21;;;;;;;;;34.25;30.25;;;;;;;;5024459;28;11035;-77
2023/05/01 05:59:49;;;;;;;;;29.50;28.25;;;;;;;;5021657;28;11941;-77
2023/05/01 06:02:16;;;;;;;;;36.25;32.25;;;;;;;;5015331;28;10917;-78
2023/05/01 06:04:43;;;;;;;;;35.25;33.25;;;;;;;;5028846;28;11277;-78
2023/05/01 06:07:12;;;;;;;;;28.50;28.50;;;;;;;;5027888;28;10959;-77
2023/05/01 06:09:39;;;;;;;;;30.00;30.00;;;;;;;;5028662;28;11054;-77
2023/05/01 06:12:07;;;;;;;;;32.00;31.25;;;;;;;;5027563;28;10812;-76
2023/05/01 06:14:34;;;;;;;;;31.75;30.50;;;;;;;;5028787;28;11858;-77
2023/05/01 06:17:01;;;;;;;;;33.00;30.50;;;;;;;;5026059;28;10926;-78
2023/05/01 06:19:30;;;;;;;;;35.25;32.75;;;;;;;;5028389;28;11005;-78
2023/05/01 06:21:57;;;;;;;;;37.50;33.00;;;;;;;;5028171;28;10971;-76
2023/05/01 06:24:26;;;;;;;;;36.00;33.50;;;;;;;;5027915;28;11010;-77
2023/05/01 06:26:53;;;;;;;;;39.75;34.00;;;;;;;;5027963;28;11054;-74
2023/05/01 06:29:20;;;;;;;;;35.50;34.50;;;;;;;;5027752;28;10865;-75
2023/05/01 06:31:48;;;;;;;;;36.25;34.75;;;;;;;;5018480;28;11013;-76
2023/05/01 06:34:15;;;;;;;;;39.00;36.75;;;;;;;;5029642;28;11004;-77
2023/05/01 06:36:42;;;;;;;;;42.00;36.75;;;;;;;;5030049;28;11269;-76
2023/05/01 06:39:09;;;;;;;;;43.25;37.75;;;;;;;;5027219;28;11992;-76
2023/05/01 06:41:38;;;;;;;;;32.00;31.50;;;;;;;;5030703;28;11182;-75
2023/05/01 06:44:05;;;;;;;;;49.00;39.00;;;;;;;;5029498;28;11008;-77
2023/05/01 06:46:32;;;;;;;;;45.25;38.25;;;;;;;;5028246;28;11138;-76
2023/05/01 06:48:59;;;;;;;;;41.25;36.25;;;;;;;;5027977;28;11319;-77
2023/05/01 06:51:27;;;;;;;;;43.75;37.50;;;;;;;;5027032;28;11694;-78
2023/05/01 06:53:54;;;;;;;;;50.75;42.50;;;;;;;;5024597;28;11263;-78
2023/05/01 06:56:21;;;;;;;;;43.50;38.25;;;;;;;;5017790;28;11277;-77
2023/05/01 06:58:51;;;;;;;;;52.50;42.75;;;;;;;;5027385;28;11211;-76
2023/05/01 07:01:18;;;;;;;;;49.25;39.50;;;;;;;;5025947;28;11349;-76
2023/05/01 07:03:46;;;;;;;;;54.75;43.75;;;;;;;;5026011;28;11306;-76
2023/05/01 07:06:15;;;;;;;;;57.25;46.50;;;;;;;;5027280;28;11280;-76
2023/05/01 07:08:42;;;;;;;;;54.50;44.25;;;;;;;;5026686;28;11190;-76
2023/05/01 07:11:10;;;;;;;;;56.25;44.50;;;;;;;;5027152;28;11472;-75
2023/05/01 07:13:37;;;;;;;;;56.50;45.50;;;;;;;;5026946;28;11495;-75
2023/05/01 07:16:07;;;;;;;;;55.00;45.25;;;;;;;;5027488;28;11283;-76
2023/05/01 07:18:34;;;;;;;;;62.00;48.00;;;;;;;;5027015;28;11262;-76
2023/05/01 07:21:02;;;;;;;;;65.25;50.00;;;;;;;;5027669;28;11569;-76
2023/05/01 07:23:30;;;;;;;;;66.50;51.75;;;;;;;;5025464;28;11504;-76
2023/05/01 07:25:57;;;;;;;;;56.00;46.75;;;;;;;;5026465;28;11295;-76
2023/05/01 07:28:24;;;;;;;;;54.50;46.75;;;;;;;;5026225;28;11123;-76
2023/05/01 07:30:51;;;;;;;;;64.75;49.75;;;;;;;;5024346;28;10987;-76
2023/05/01 07:33:20;;;;;;;;;60.50;49.50;;;;;;;;5024162;28;11187;-76
2023/05/01 07:35:47;;;;;;;;;57.00;47.75;;;;;;;;5026458;28;12051;-77
2023/05/01 07:38:16;;;;;;;;;60.75;49.75;;;;;;;;5026528;28;11383;-76
2023/05/01 07:40:44;;;;;;;;;62.00;49.75;;;;;;;;5026576;28;11181;-76
2023/05/01 07:43:11;;;;;;;;;66.25;53.00;;;;;;;;5026837;28;11291;-77
2023/05/01 07:45:39;;;;;;;;;63.00;50.50;;;;;;;;5026144;28;11472;-77
2023/05/01 07:48:06;;;;;;;;;65.50;52.00;;;;;;;;5026432;28;11629;-74
2023/05/01 07:50:35;;;;;;;;;62.25;50.25;;;;;;;;5026937;28;11484;-75
2023/05/01 07:53:03;;;;;;;;;60.00;50.25;;;;;;;;5027097;28;11500;-76
2023/05/01 07:55:30;;;;;;;;;64.00;51.00;;;;;;;;5026617;28;11246;-76
2023/05/01 07:57:58;;;;;;;;;63.00;51.50;;;;;;;;5025926;28;11282;-74
2023/05/01 08:00:25;;;;;;;;;62.25;51.00;;;;;;;;5028769;28;11183;-76
2023/05/01 08:02:52;;;;;;;;;64.75;52.00;;;;;;;;5030006;28;11061;-76
2023/05/01 08:05:19;;;;;;;;;54.25;46.25;;;;;;;;5030577;28;11257;-76
2023/05/01 08:07:48;;;;;;;;;59.00;48.25;;;;;;;;5030094;28;10937;-76
2023/05/01 08:10:15;;;;;;;;;62.25;50.25;;;;;;;;5030595;28;10996;-76
2023/05/01 08:12:42;;;;;;;;;56.25;46.75;;;;;;;;5030271;28;10900;-75
2023/05/01 08:15:10;;;;;;;;;61.50;48.00;;;;;;;;5020660;28;10669;-75
2023/05/01 08:17:37;;;;;;;;;55.00;44.50;;;;;;;;5031181;28;10822;-76
2023/05/01 08:20:06;;;;;;;;;54.75;44.00;;;;;;;;5031981;28;10872;-78
2023/05/01 08:22:33;;;;;;;;;52.00;42.75;;;;;;;;5033472;28;10624;-77
2023/05/01 08:25:02;;;;;;;;;56.50;44.50;;;;;;;;5033339;28;10633;-78
2023/05/01 08:27:29;;;;;;;;;58.75;47.75;;;;;;;;5034024;28;10583;-76
2023/05/01 08:29:56;;;;;;;;;59.75;47.75;;;;;;;;5033096;28;10792;-77
2023/05/01 08:32:23;;;;;;;;;57.25;48.00;;;;;;;;5029379;28;10485;-76
2023/05/01 08:34:53;;;;;;;;;59.25;48.25;;;;;;;;5029330;28;11323;-75
2023/05/01 08:37:20;;;;;;;;;53.50;44.25;;;;;;;;5030962;28;10425;-74
2023/05/01 08:39:48;;;;;;;;;59.50;48.75;;;;;;;;5029496;28;10264;-74
2023/05/01 08:42:17;;;;;;;;;53.50;44.25;;;;;;;;5029908;28;10292;-73
2023/05/01 08:44:44;;;;;;;;;51.00;42.50;;;;;;;;5026407;28;10167;-74
2023/05/01 08:47:14;;;;;;;;;57.75;45.25;;;;;;;;5029646;28;10949;-74
2023/05/01 08:49:42;;;;;;;;;58.75;46.25;;;;;;;;5028960;28;10556;-75
2023/05/01 08:52:11;;;;;;;;;56.75;45.00;;;;;;;;5028939;28;10639;-74
2023/05/01 08:54:42;;;;;;;;;59.50;47.25;;;;;;;;5028828;28;11314;-76
2023/05/01 08:57:11;;;;;;;;;55.50;46.00;;;;;;;;5029591;28;10425;-73
2023/05/01 08:59:40;;;;;;;;;56.50;44.75;;;;;;;;5029255;28;10318;-74
2023/05/01 09:02:09;;;;;;;;;49.50;42.25;;;;;;;;5028410;28;10397;-73
2023/05/01 09:04:38;;;;;;;;;58.50;47.75;;;;;;;;5029873;28;10399;-72
2023/05/01 09:07:05;;;;;;;;;50.00;41.50;;;;;;;;5029170;28;10343;-73
2023/05/01 09:09:34;;;;;;;;;50.75;41.75;;;;;;;;5029516;28;9931;-74
2023/05/01 09:12:04;;;;;;;;;55.75;46.00;;;;;;;;5028654;28;10232;-74
2023/05/01 09:14:32;;;;;;;;;53.50;43.00;;;;;;;;5028901;28;10111;-74
2023/05/01 09:17:01;;;;;;;;;57.00;45.50;;;;;;;;5027730;28;10026;-74
2023/05/01 09:19:28;;;;;;;;;50.00;42.25;;;;;;;;5028143;28;10063;-74
2023/05/01 09:21:55;;;;;;;;;48.75;41.50;;;;;;;;5027888;28;9642;-73
2023/05/01 09:24:24;;;;;;;;;53.75;43.00;;;;;;;;5028621;28;10416;-85
2023/05/01 09:26:52;;;;;;;;;54.00;45.25;;;;;;;;5027760;28;9849;-74
2023/05/01 09:29:38;;;;;;;;;47.50;40.50;;;;;;;;5028073;28;9810;-74
2023/05/01 09:32:19;;;;;;;;;48.33;40.67;;;;;;;;5018290;28;9412;-74
2023/05/01 09:34:47;;;;;;;;;47.67;37.33;;;;;;;;5028758;28;9380;-74
2023/05/01 09:37:26;;;;;;;;;44.67;37.00;;;;;;;;5028475;28;9249;-74
2023/05/01 09:40:05;;;;;;;;;34.67;31.67;;;;;;;;5029216;28;9300;-74
2023/05/01 09:42:32;;;;;;;;;38.25;33.75;;;;;;;;5026564;28;9009;-75
2023/05/01 09:45:00;;;;;;;;;41.00;35.00;;;;;;;;5029108;28;8874;-84
2023/05/01 09:47:29;;;;;;;;;42.50;34.50;;;;;;;;5012144;28;9053;-78
2023/05/01 09:49:58;;;;;;;;;34.00;32.00;;;;;;;;5028792;28;8852;-79
2023/05/01 09:52:26;;;;;;;;;26.25;26.00;;;;;;;;5028635;28;9075;-79
2023/05/01 09:55:13;;;;;;;;;36.67;32.00;;;;;;;;5029052;28;8826;-74
2023/05/01 09:57:41;;;;;;;;;33.67;26.33;;;;;;;;5031138;28;9175;-81
2023/05/01 10:00:11;;;;;;;;;28.67;26.67;;;;;;;;5028407;28;9086;-74
2023/05/01 10:02:40;;;;;;;;;24.33;22.33;;;;;;;;5029562;28;9720;-81
2023/05/01 10:05:08;;;;;;;;;26.25;24.75;;;;;;;;5027509;28;9043;-73
2023/05/01 10:07:36;;;;;;;;;27.25;24.50;;;;;;;;5032678;28;9625;-78
2023/05/01 10:10:19;;;;;;;;;25.75;25.00;;;;;;;;5032478;28;8847;-81
2023/05/01 10:12:46;;;;;;;;;21.25;21.25;;;;;;;;5025946;28;9671;-84
2023/05/01 10:15:14;;;;;;;;;22.50;19.50;;;;;;;;5033817;28;8997;-83
2023/05/01 10:17:44;;;;;;;;;20.25;20.25;;;;;;;;5032592;28;8842;-79
2023/05/01 10:20:12;;;;;;;;;17.25;14.75;;;;;;;;5026295;28;8862;-81
2023/05/01 10:22:40;;;;;;;;;18.75;18.00;;;;;;;;5029394;28;8826;-80
2023/05/01 10:25:10;;;;;;;;;20.75;17.50;;;;;;;;5028579;28;8878;-74
2023/05/01 10:27:39;;;;;;;;;19.00;17.00;;;;;;;;5010718;28;8935;-77
2023/05/01 10:30:07;;;;;;;;;19.00;17.50;;;;;;;;5027677;28;8858;-78
2023/05/01 10:32:36;;;;;;;;;18.25;17.00;;;;;;;;5016842;28;8885;-78
2023/05/01 10:35:12;;;;;;;;;13.00;13.00;;;;;;;;5028408;28;8985;-78
2023/05/01 10:37:46;;;;;;;;;18.25;16.75;;;;;;;;5026994;28;8876;-76
2023/05/01 10:40:45;;;;;;;;;11.25;10.00;;;;;;;;5028430;28;8826;-78
2023/05/01 10:43:18;;;;;;;;;10.50;9.50;;;;;;;;5022172;28;8860;-79
2023/05/01 10:45:46;;;;;;;;;8.25;8.25;;;;;;;;5026813;28;8846;-80
2023/05/01 10:48:20;;;;;;;;;3.00;2.75;;;;;;;;5028192;28;8868;-80
2023/05/01 10:51:10;;;;;;;;;10.00;10.00;;;;;;;;5027595;28;8847;-73
2023/05/01 10:53:38;;;;;;;;;9.50;9.50;;;;;;;;5027613;28;8916;-80
2023/05/01 10:56:06;;;;;;;;;14.25;14.25;;;;;;;;5028384;28;8842;-81
2023/05/01 10:58:56;;;;;;;;;11.25;11.25;;;;;;;;5027339;28;8842;-79
2023/05/01 11:01:31;;;;;;;;;16.50;14.75;;;;;;;;5028096;28;8797;-76
2023/05/01 11:03:58;;;;;;;;;17.00;12.00;;;;;;;;5020542;28;8877;-77
2023/05/01 11:06:27;;;;;;;;;12.75;10.75;;;;;;;;5028093;28;8856;-77
2023/05/01 11:08:55;;;;;;;;;12.25;11.25;;;;;;;;5028435;28;8989;-76
2023/05/01 11:11:50;;;;;;;;;15.25;12.75;;;;;;;;5027063;28;8842;-76
2023/05/01 11:14:18;;;;;;;;;19.75;13.00;;;;;;;;5027606;28;8834;-80
2023/05/01 11:16:47;;;;;;;;;10.50;10.50;;;;;;;;5028158;28;8932;-78
2023/05/01 11:19:49;;;;;;;;;13.75;13.75;;;;;;;;5028447;28;8945;-81
2023/05/01 11:22:19;;;;;;;;;11.75;10.50;;;;;;;;5029499;28;8953;-78
2023/05/01 11:24:46;;;;;;;;;10.25;10.00;;;;;;;;5028523;28;8896;-77
2023/05/01 11:27:15;;;;;;;;;7.25;7.25;;;;;;;;5027689;28;8837;-80
2023/05/01 11:29:47;;;;;;;;;8.00;8.00;;;;;;;;5027214;28;8868;-78
2023/05/01 11:32:18;;;;;;;;;9.50;9.50;;;;;;;;5016661;28;8829;-75
2023/05/01 11:34:47;;;;;;;;;10.25;8.50;;;;;;;;5032788;28;8862;-79
2023/05/01 11:37:14;;;;;;;;;9.25;9.25;;;;;;;;5032472;28;8846;-75
2023/05/01 11:39:49;;;;;;;;;8.25;8.25;;;;;;;;5033814;28;8846;-82
2023/05/01 11:42:17;;;;;;;;;9.50;9.50;;;;;;;;5031535;28;8830;-83
2023/05/01 11:44:44;;;;;;;;;7.75;7.75;;;;;;;;5031583;28;9761;-79
2023/05/01 11:47:12;;;;;;;;;10.25;8.50;;;;;;;;5030845;28;8870;-80
2023/05/01 11:49:39;;;;;;;;;8.25;7.75;;;;;;;;5031851;28;8846;-75
2023/05/01 11:52:07;;;;;;;;;5.75;5.75;;;;;;;;5032084;28;8838;-79
2023/05/01 11:54:49;;;;;;;;;10.25;10.25;;;;;;;;5032740;28;9646;-77
2023/05/01 11:57:18;;;;;;;;;10.75;9.00;;;;;;;;5032401;28;8869;-79
2023/05/01 11:59:47;;;;;;;;;17.75;13.25;;;;;;;;5034918;28;8830;-81
2023/05/01 12:02:19;;;;;;;;;11.50;10.00;;;;;;;;5034652;28;8842;-78
2023/05/01 12:04:46;;;;;;;;;7.75;7.75;;;;;;;;5031754;28;8895;-79
2023/05/01 12:07:21;;;;;;;;;9.25;7.00;;;;;;;;5031709;28;8876;-78
2023/05/01 12:09:50;;;;;;;;;14.75;14.25;;;;;;;;5032701;28;8851;-75
2023/05/01 12:12:18;;;;;;;;;12.00;10.25;;;;;;;;5030701;28;8972;-76
2023/05/01 12:14:45;;;;;;;;;9.75;9.50;;;;;;;;5030446;28;8850;-75
2023/05/01 12:17:13;;;;;;;;;8.50;8.50;;;;;;;;5030787;28;8873;-77
2023/05/01 12:19:48;;;;;;;;;10.50;8.00;;;;;;;;5030083;28;8860;-75
2023/05/01 12:22:16;;;;;;;;;10.25;10.25;;;;;;;;5030188;28;8850;-78
2023/05/01 12:24:52;;;;;;;;;7.00;6.75;;;;;;;;5030452;28;8862;-78
2023/05/01 12:27:20;;;;;;;;;6.50;6.50;;;;;;;;5029807;28;9704;-75
2023/05/01 12:29:47;;;;;;;;;5.50;5.00;;;;;;;;5030540;28;8861;-75
2023/05/01 12:32:15;;;;;;;;;8.00;8.00;;;;;;;;5018787;28;8807;-75
2023/05/01 12:34:43;;;;;;;;;6.50;5.50;;;;;;;;5030664;28;8882;-75
2023/05/01 12:37:10;;;;;;;;;13.00;11.75;;;;;;;;5029563;28;8961;-78
2023/05/01 12:39:39;;;;;;;;;7.20;7.20;;;;;;;;5030237;28;8900;-74
2023/05/01 12:42:14;;;;;;;;;6.80;6.60;;;;;;;;5030238;28;8860;-74
2023/05/01 12:44:41;;;;;;;;;8.20;5.60;;;;;;;;5029528;28;8854;-75
2023/05/01 12:47:09;;;;;;;;;6.20;6.20;;;;;;;;5029505;28;8846;-77
2023/05/01 12:49:38;;;;;;;;;5.20;4.40;;;;;;;;5030841;28;8854;-78
2023/05/01 12:52:07;;;;;;;;;6.00;6.00;;;;;;;;5029575;28;8872;-76
2023/05/01 12:54:36;;;;;;;;;6.25;6.25;;;;;;;;5030048;28;8925;-74
2023/05/01 12:57:08;;;;;;;;;5.50;5.50;;;;;;;;5029855;28;8992;-75
2023/05/01 12:59:38;;;;;;;;;9.75;9.75;;;;;;;;5029853;28;9629;-75
2023/05/01 13:02:07;;;;;;;;;9.75;9.75;;;;;;;;5029211;28;9604;-76
2023/05/01 13:04:34;;;;;;;;;7.25;7.25;;;;;;;;5029308;28;8884;-76
2023/05/01 13:07:02;;;;;;;;;8.75;8.75;;;;;;;;5030533;28;8862;-74
2023/05/01 13:09:31;;;;;;;;;12.67;7.00;;;;;;;;5029501;28;8858;-77
2023/05/01 13:12:03;;;;;;;;;6.00;6.00;;;;;;;;5030338;28;8873;-74
2023/05/01 13:14:38;;;;;;;;;6.25;6.25;;;;;;;;5029487;28;8920;-75
2023/05/01 13:17:06;;;;;;;;;8.75;8.50;;;;;;;;5030283;28;8850;-75
2023/05/01 13:19:33;;;;;;;;;10.00;10.00;;;;;;;;5029287;28;9021;-75
2023/05/01 13:22:01;;;;;;;;;8.75;6.50;;;;;;;;5029318;28;8842;-77
2023/05/01 13:24:37;;;;;;;;;8.00;7.25;;;;;;;;5028521;28;8854;-77
2023/05/01 13:27:05;;;;;;;;;9.00;9.00;;;;;;;;5027732;28;8850;-77
2023/05/01 13:29:32;;;;;;;;;7.50;7.50;;;;;;;;5029074;28;8834;-74
2023/05/01 13:32:01;;;;;;;;;8.75;8.75;;;;;;;;5018425;28;9632;-77
2023/05/01 13:34:31;;;;;;;;;1.50;1.50;;;;;;;;5029578;28;8862;-78
2023/05/01 13:36:59;;;;;;;;;1.75;1.00;;;;;;;;5029143;28;8850;-78
2023/05/01 13:39:27;;;;;;;;;1.00;1.00;;;;;;;;5030095;28;9266;-77
2023/05/01 13:41:54;;;;;;;;;1.50;1.50;;;;;;;;5031325;28;8963;-76
2023/05/01 13:44:22;;;;;;;;;2.75;1.75;;;;;;;;5030499;28;8861;-77
2023/05/01 13:46:50;;;;;;;;;3.00;3.00;;;;;;;;5031172;28;9641;-76
2023/05/01 13:49:22;;;;;;;;;4.00;3.00;;;;;;;;5022128;28;8965;-77
2023/05/01 13:51:49;;;;;;;;;4.00;4.00;;;;;;;;5032373;28;8822;-77
2023/05/01 13:54:17;;;;;;;;;3.75;3.75;;;;;;;;5032738;28;8919;-78
2023/05/01 13:56:45;;;;;;;;;3.00;3.00;;;;;;;;5028779;28;8997;-78
2023/05/01 13:59:12;;;;;;;;;2.25;2.25;;;;;;;;5029541;28;8850;-76
2023/05/01 14:01:44;;;;;;;;;3.25;3.25;;;;;;;;5028112;28;8802;-76
2023/05/01 14:04:15;;;;;;;;;2.00;2.00;;;;;;;;5029142;28;8961;-78
2023/05/01 14:06:45;;;;;;;;;2.75;2.75;;;;;;;;5028457;28;8873;-77
2023/05/01 14:09:13;;;;;;;;;2.75;2.75;;;;;;;;5027990;28;8854;-75
2023/05/01 14:11:47;;;;;;;;;3.00;3.00;;;;;;;;5027801;28;9000;-76
2023/05/01 14:14:16;;;;;;;;;2.75;2.75;;;;;;;;5027215;28;8949;-74
2023/05/01 14:16:45;;;;;;;;;2.25;2.25;;;;;;;;5028101;28;8850;-75
2023/05/01 14:19:16;;;;;;;;;1.00;1.00;;;;;;;;5027114;28;8845;-76
2023/05/01 14:21:45;;;;;;;;;2.00;2.00;;;;;;;;5028743;28;8850;-74
2023/05/01 14:24:14;;;;;;;;;3.00;3.00;;;;;;;;5027616;28;8921;-75
2023/05/01 14:26:49;;;;;;;;;2.50;2.50;;;;;;;;5028727;28;8851;-75
2023/05/01 14:29:25;;;;;;;;;3.00;3.00;;;;;;;;5024889;28;8928;-77
2023/05/01 14:31:54;;;;;;;;;5.25;2.00;;;;;;;;5017998;28;8915;-74
2023/05/01 14:34:21;;;;;;;;;2.00;2.00;;;;;;;;5029002;28;8854;-77
2023/05/01 14:36:52;;;;;;;;;3.75;2.25;;;;;;;;5029328;28;8862;-75
2023/05/01 14:39:19;;;;;;;;;3.00;3.00;;;;;;;;5028978;28;9667;-74